createdAt,value
2022-10-03T00:01:45.686Z,12.20
2022-10-03T00:04:27.028Z,12.10
2022-10-03T00:07:16.584Z,12.00
2022-10-03T00:10:01.323Z,12.00
2022-10-03T00:12:52.804Z,11.90
2022-10-03T00:15:46.762Z,11.90
2022-10-03T00:18:57.428Z,11.90
2022-10-03T00:21:48.009Z,11.80
2022-10-03T00:24:50.729Z,11.80
2022-10-03T00:27:26.370Z,11.70
2022-10-03T00:30:19.416Z,11.70
2022-10-03T00:33:06.579Z,11.70
2022-10-03T00:36:01.027Z,11.80
2022-10-03T00:38:42.016Z,11.70
2022-10-03T00:41:27.660Z,11.70
2022-10-03T00:44:47.690Z,11.70
2022-10-03T00:47:56.146Z,11.80
2022-10-03T00:50:32.453Z,11.90
2022-10-03T00:53:24.665Z,11.90
2022-10-03T00:56:03.623Z,12.00
2022-10-03T00:58:50.604Z,12.00
2022-10-03T01:01:25.015Z,12.00
2022-10-03T01:04:05.508Z,12.00
2022-10-03T01:06:42.273Z,12.10
2022-10-03T01:09:22.792Z,12.00
2022-10-03T01:12:47.317Z,12.10
2022-10-03T01:15:32.726Z,12.10
2022-10-03T01:18:27.764Z,12.10
2022-10-03T01:21:24.466Z,12.10
2022-10-03T01:24:39.040Z,12.10
2022-10-03T01:27:32.628Z,12.10
2022-10-03T01:30:23.567Z,12.10
2022-10-03T01:33:09.192Z,12.10
2022-10-03T01:35:55.413Z,12.10
2022-10-03T01:38:29.822Z,12.00
2022-10-03T01:41:15.269Z,12.10
2022-10-03T01:43:58.362Z,12.20
2022-10-03T01:46:36.626Z,12.20
2022-10-03T01:49:33.948Z,12.20
2022-10-03T01:52:06.687Z,12.20
2022-10-03T01:55:05.239Z,12.20
2022-10-03T01:57:53.626Z,12.20
2022-10-03T02:00:24.940Z,12.10
2022-10-03T02:03:00.460Z,12.10
2022-10-03T02:05:50.082Z,12.20
2022-10-03T02:08:35.549Z,12.20
2022-10-03T02:11:08.384Z,12.20
2022-10-03T02:13:52.863Z,12.20
2022-10-03T02:16:42.580Z,12.10
2022-10-03T02:19:33.930Z,12.00
2022-10-03T02:22:01.356Z,12.10
2022-10-03T02:24:46.509Z,12.10
2022-10-03T02:27:26.275Z,12.10
2022-10-03T02:30:13.474Z,12.10
2022-10-03T02:33:33.131Z,12.20
2022-10-03T02:36:37.355Z,12.20
2022-10-03T02:39:30.626Z,12.10
2022-10-03T02:42:15.936Z,12.10
2022-10-03T02:44:54.735Z,12.00
2022-10-03T02:48:19.775Z,12.00
2022-10-03T02:51:04.349Z,11.90
2022-10-03T02:54:08.788Z,11.80
2022-10-03T02:56:48.184Z,11.70
2022-10-03T02:59:18.142Z,11.70
2022-10-03T03:01:53.816Z,11.70
2022-10-03T03:04:37.359Z,11.60
2022-10-03T03:07:19.826Z,11.50
2022-10-03T03:10:17.330Z,11.50
2022-10-03T03:13:08.849Z,11.50
2022-10-03T03:15:38.410Z,11.40
2022-10-03T03:18:11.267Z,11.40
2022-10-03T03:21:09.150Z,11.40
2022-10-03T03:23:56.132Z,11.30
2022-10-03T03:27:04.604Z,11.20
2022-10-03T03:29:45.338Z,11.20
2022-10-03T03:32:38.413Z,11.10
2022-10-03T03:35:23.501Z,11.10
2022-10-03T03:38:16.721Z,11.00
2022-10-03T03:41:25.082Z,11.00
2022-10-03T03:44:31.327Z,11.00
2022-10-03T03:47:28.138Z,10.90
2022-10-03T03:50:11.499Z,10.90
2022-10-03T03:52:46.130Z,10.80
2022-10-03T03:55:34.027Z,10.80
2022-10-03T03:58:24.327Z,10.80
2022-10-03T04:01:29.415Z,10.80
2022-10-03T04:04:05.085Z,10.70
2022-10-03T04:06:56.230Z,10.70
2022-10-03T04:09:47.672Z,10.70
2022-10-03T04:12:24.636Z,10.70
2022-10-03T04:15:16.199Z,10.60
2022-10-03T04:18:20.135Z,10.70
2022-10-03T04:21:07.790Z,10.70
2022-10-03T04:24:05.038Z,10.70
2022-10-03T04:26:59.664Z,10.70
2022-10-03T04:29:48.089Z,10.70
2022-10-03T04:32:49.866Z,10.70
2022-10-03T04:35:44.634Z,10.70
2022-10-03T04:38:17.062Z,10.70
2022-10-03T04:41:01.842Z,10.60
2022-10-03T04:43:40.430Z,10.60
2022-10-03T04:46:53.026Z,10.60
2022-10-03T04:50:00.619Z,10.50
2022-10-03T04:52:49.080Z,10.60
2022-10-03T04:55:40.319Z,10.40
2022-10-03T04:58:24.954Z,10.30
2022-10-03T05:01:06.972Z,10.20
2022-10-03T05:04:05.078Z,10.10
2022-10-03T05:06:59.127Z,10.10
2022-10-03T05:09:42.428Z,10.00
2022-10-03T05:12:44.518Z,10.00
2022-10-03T05:15:11.704Z,10.00
2022-10-03T05:17:53.227Z,10.00
2022-10-03T05:20:28.074Z,10.10
2022-10-03T05:23:24.470Z,10.10
2022-10-03T05:26:39.778Z,10.00
2022-10-03T05:29:17.478Z,10.00
2022-10-03T05:32:14.826Z,10.00
2022-10-03T05:34:59.623Z,10.00
2022-10-03T05:37:37.646Z,10.00
2022-10-03T05:40:27.932Z,10.00
2022-10-03T05:43:02.759Z,10.00
2022-10-03T05:45:56.163Z,10.00
2022-10-03T05:48:50.223Z,10.00
2022-10-03T05:51:39.696Z,10.00
2022-10-03T05:54:52.043Z,10.00
2022-10-03T05:57:31.022Z,10.00
2022-10-03T06:00:15.013Z,10.00
2022-10-03T06:02:59.422Z,10.00
2022-10-03T06:05:56.644Z,10.00
2022-10-03T06:09:08.109Z,10.10
2022-10-03T06:11:55.262Z,10.20
2022-10-03T06:14:35.392Z,10.20
2022-10-03T06:17:10.973Z,10.30
2022-10-03T06:20:09.431Z,10.50
2022-10-03T06:22:54.603Z,10.50
2022-10-03T06:25:58.536Z,10.60
2022-10-03T06:28:51.890Z,10.70
2022-10-03T06:31:56.336Z,10.80
2022-10-03T06:35:04.367Z,10.90
2022-10-03T06:38:16.182Z,10.90
2022-10-03T06:41:18.397Z,10.90
2022-10-03T06:44:12.969Z,11.00
2022-10-03T06:46:46.011Z,11.10
2022-10-03T06:49:30.074Z,11.10
2022-10-03T06:52:40.869Z,11.10
2022-10-03T06:55:31.544Z,11.20
2022-10-03T06:58:20.221Z,11.30
2022-10-03T07:00:56.187Z,11.30
2022-10-03T07:03:36.071Z,11.30
2022-10-03T07:06:20.758Z,11.40
2022-10-03T07:09:15.274Z,11.50
2022-10-03T07:12:16.856Z,11.60
2022-10-03T07:15:07.709Z,11.80
2022-10-03T07:17:59.447Z,11.90
2022-10-03T07:20:31.984Z,11.90
2022-10-03T07:23:36.693Z,11.90
2022-10-03T07:26:39.726Z,11.90
2022-10-03T07:29:27.105Z,12.00
2022-10-03T07:32:17.748Z,12.10
2022-10-03T07:35:12.751Z,12.20
2022-10-03T07:38:48.694Z,12.40
2022-10-03T07:41:45.182Z,12.50
2022-10-03T07:44:31.015Z,12.40
2022-10-03T07:47:15.710Z,12.60
2022-10-03T07:49:48.695Z,12.60
2022-10-03T07:52:33.942Z,13.00
2022-10-03T07:55:19.862Z,13.30
2022-10-03T07:58:05.196Z,13.30
2022-10-03T08:00:43.366Z,13.60
2022-10-03T08:03:47.629Z,13.80
2022-10-03T08:06:53.340Z,14.20
2022-10-03T08:09:38.299Z,14.70
2022-10-03T08:12:29.710Z,15.10
2022-10-03T08:15:26.392Z,15.40
2022-10-03T08:18:23.114Z,15.40
2022-10-03T08:21:04.408Z,15.50
2022-10-03T08:23:51.089Z,15.60
2022-10-03T08:26:27.912Z,15.50
2022-10-03T08:29:31.134Z,15.50
2022-10-03T08:32:11.207Z,15.50
2022-10-03T08:35:17.100Z,15.50
2022-10-03T08:37:52.653Z,15.40
2022-10-03T08:40:40.361Z,15.40
2022-10-03T08:43:44.911Z,15.40
2022-10-03T08:46:39.814Z,15.20
2022-10-03T08:49:33.782Z,15.00
2022-10-03T08:52:03.350Z,14.90
2022-10-03T08:54:32.870Z,14.80
2022-10-03T08:57:08.495Z,14.80
2022-10-03T08:59:54.003Z,14.50
2022-10-03T09:02:40.862Z,14.40
2022-10-03T09:05:30.410Z,14.60
2022-10-03T09:08:31.200Z,14.70
2022-10-03T09:11:26.351Z,14.60
2022-10-03T09:14:11.755Z,14.70
2022-10-03T09:17:04.171Z,14.70
2022-10-03T09:19:35.127Z,14.70
2022-10-03T09:22:27.777Z,14.80
2022-10-03T09:25:12.505Z,15.00
2022-10-03T09:28:25.661Z,15.10
2022-10-03T09:31:13.643Z,15.20
2022-10-03T09:33:55.779Z,15.10
2022-10-03T09:37:05.423Z,15.10
2022-10-03T09:39:50.943Z,15.10
2022-10-03T09:43:08.122Z,15.20
2022-10-03T09:45:59.503Z,15.40
2022-10-03T09:48:32.787Z,15.50
2022-10-03T09:51:20.170Z,15.60
2022-10-03T09:54:19.885Z,15.50
2022-10-03T09:57:25.734Z,15.40
2022-10-03T09:59:58.467Z,15.30
2022-10-03T10:02:46.780Z,15.50
2022-10-03T10:05:45.475Z,15.40
2022-10-03T10:08:34.001Z,15.40
2022-10-03T10:11:35.263Z,15.50
2022-10-03T10:14:10.929Z,15.40
2022-10-03T10:16:58.053Z,15.40
2022-10-03T10:19:27.581Z,15.60
2022-10-03T10:21:56.996Z,15.70
2022-10-03T10:24:46.728Z,15.70
2022-10-03T10:27:32.487Z,15.70
2022-10-03T10:30:23.407Z,15.70
2022-10-03T10:33:17.792Z,15.70
2022-10-03T10:35:47.267Z,15.70
2022-10-03T10:38:38.102Z,15.80
2022-10-03T10:41:42.702Z,15.80
2022-10-03T10:44:29.790Z,15.90
2022-10-03T10:47:13.749Z,15.90
2022-10-03T10:50:06.249Z,16.10
2022-10-03T10:52:44.852Z,16.20
2022-10-03T10:55:43.991Z,16.10
2022-10-03T10:58:31.444Z,16.10
2022-10-03T11:01:19.811Z,16.10
2022-10-03T11:04:08.248Z,16.20
2022-10-03T11:07:04.197Z,16.40
2022-10-03T11:10:09.236Z,16.60
2022-10-03T11:13:13.561Z,16.60
2022-10-03T11:16:11.299Z,16.70
2022-10-03T11:18:46.921Z,16.60
2022-10-03T11:21:33.846Z,16.60
2022-10-03T11:24:20.213Z,16.50
2022-10-03T11:27:08.763Z,16.70
2022-10-03T11:30:13.684Z,16.70
2022-10-03T11:33:02.103Z,16.80
2022-10-03T11:36:04.156Z,16.80
2022-10-03T11:38:55.233Z,16.60
2022-10-03T11:41:35.847Z,16.70
2022-10-03T11:44:29.801Z,16.40
2022-10-03T11:47:30.896Z,16.10
2022-10-03T11:50:16.425Z,15.80
2022-10-03T11:52:53.872Z,15.60
2022-10-03T11:55:39.351Z,15.30
2022-10-03T11:58:50.190Z,15.10
2022-10-03T12:01:44.305Z,14.80
2022-10-03T12:04:23.606Z,14.50
2022-10-03T12:07:28.068Z,14.40
2022-10-03T12:10:08.005Z,14.40
2022-10-03T12:12:48.180Z,14.60
2022-10-03T12:15:40.956Z,14.60
2022-10-03T12:18:42.477Z,14.70
2022-10-03T12:21:25.680Z,14.50
2022-10-03T12:24:18.363Z,14.60
2022-10-03T12:27:06.152Z,14.70
2022-10-03T12:29:36.313Z,14.80
2022-10-03T12:32:24.271Z,14.90
2022-10-03T12:35:04.683Z,15.00
2022-10-03T12:38:02.284Z,15.00
2022-10-03T12:40:41.864Z,15.00
2022-10-03T12:43:34.900Z,14.90
2022-10-03T12:46:11.169Z,14.70
2022-10-03T12:49:03.814Z,14.70
2022-10-03T12:51:43.063Z,14.80
2022-10-03T12:54:49.514Z,14.90
2022-10-03T12:57:40.610Z,14.80
2022-10-03T13:00:21.012Z,14.80
2022-10-03T13:03:11.528Z,14.90
2022-10-03T13:05:55.747Z,14.90
2022-10-03T13:08:34.348Z,14.90
2022-10-03T13:11:26.141Z,14.90
2022-10-03T13:14:02.007Z,14.90
2022-10-03T13:16:35.222Z,14.90
2022-10-03T13:19:25.197Z,15.00
2022-10-03T13:21:54.908Z,15.00
2022-10-03T13:24:40.039Z,15.10
2022-10-03T13:27:35.401Z,15.20
2022-10-03T13:30:29.019Z,15.40
2022-10-03T13:33:25.666Z,15.60
2022-10-03T13:36:14.966Z,15.60
2022-10-03T13:39:00.090Z,15.50
2022-10-03T13:41:32.477Z,15.30
2022-10-03T13:44:23.708Z,15.20
2022-10-03T13:47:17.019Z,15.30
2022-10-03T13:49:56.915Z,15.20
2022-10-03T13:52:31.254Z,15.10
2022-10-03T13:55:20.495Z,15.20
2022-10-03T13:58:19.492Z,15.10
2022-10-03T14:01:07.320Z,14.90
2022-10-03T14:03:45.469Z,14.90
2022-10-03T14:06:26.511Z,14.90
2022-10-03T14:09:14.853Z,15.00
2022-10-03T14:11:44.487Z,15.10
2022-10-03T14:14:45.615Z,15.20
2022-10-03T14:17:18.281Z,14.90
2022-10-03T14:19:53.781Z,14.90
2022-10-03T14:22:32.620Z,14.70
2022-10-03T14:25:17.869Z,14.60
2022-10-03T14:27:49.387Z,14.70
2022-10-03T14:30:25.372Z,14.60
2022-10-03T14:33:17.127Z,14.70
2022-10-03T14:35:52.946Z,14.80
2022-10-03T14:38:52.965Z,14.80
2022-10-03T14:41:23.656Z,14.80
2022-10-03T14:44:12.946Z,14.60
2022-10-03T14:46:47.130Z,14.50
2022-10-03T14:52:39.961Z,14.40
2022-10-03T14:55:14.800Z,14.50
2022-10-03T14:58:11.168Z,14.40
2022-10-03T15:00:46.146Z,14.40
2022-10-03T15:03:21.462Z,14.30
2022-10-03T15:05:57.041Z,14.40
2022-10-03T15:08:31.233Z,14.50
2022-10-03T15:10:59.356Z,14.50
2022-10-03T15:13:28.967Z,14.50
2022-10-03T15:15:56.784Z,14.50
2022-10-03T15:18:24.586Z,14.50
2022-10-03T15:20:55.432Z,14.50
2022-10-03T15:23:40.369Z,14.50
2022-10-03T15:26:18.793Z,14.40
2022-10-03T15:28:50.030Z,14.30
2022-10-03T15:31:45.676Z,14.30
2022-10-03T15:34:25.795Z,14.20
2022-10-03T15:37:01.550Z,14.10
2022-10-03T15:39:33.504Z,14.10
2022-10-03T15:42:22.940Z,14.10
2022-10-03T15:44:53.575Z,14.10
2022-10-03T15:47:27.373Z,14.10
2022-10-03T15:50:17.135Z,14.10
2022-10-03T15:52:52.450Z,14.10
2022-10-03T15:55:42.221Z,14.00
2022-10-03T15:58:29.782Z,14.00
2022-10-03T16:01:11.876Z,14.00
2022-10-03T16:03:47.677Z,14.00
2022-10-03T16:06:49.377Z,13.90
2022-10-03T16:09:52.099Z,13.90
2022-10-03T16:12:47.056Z,13.80
2022-10-03T16:15:27.651Z,13.70
2022-10-03T16:18:35.976Z,13.70
2022-10-03T16:21:04.661Z,13.70
2022-10-03T16:23:38.009Z,13.70
2022-10-03T16:26:20.658Z,13.60
2022-10-03T16:29:01.667Z,13.60
2022-10-03T16:31:38.365Z,13.50
2022-10-03T16:34:15.394Z,13.50
2022-10-03T16:36:45.153Z,13.40
2022-10-03T16:39:25.462Z,13.30
2022-10-03T16:41:56.848Z,13.20
2022-10-03T16:44:44.170Z,13.20
2022-10-03T16:47:11.929Z,13.10
2022-10-03T16:50:08.116Z,13.10
2022-10-03T16:52:39.387Z,13.00
2022-10-03T16:55:43.250Z,12.90
2022-10-03T16:58:09.898Z,12.90
2022-10-03T17:01:22.223Z,12.90
2022-10-03T17:04:12.580Z,12.90
2022-10-03T17:06:40.524Z,12.90
2022-10-03T17:09:17.936Z,12.90
2022-10-03T17:11:52.319Z,12.90
2022-10-03T17:14:20.851Z,12.90
2022-10-03T17:16:57.130Z,13.00
2022-10-03T17:19:34.946Z,13.00
2022-10-03T17:22:24.019Z,12.90
2022-10-03T17:25:18.076Z,12.90
2022-10-03T17:27:49.585Z,12.80
2022-10-03T17:30:54.845Z,12.70
2022-10-03T17:33:40.243Z,12.70
2022-10-03T17:36:18.839Z,12.60
2022-10-03T17:39:33.010Z,12.50
2022-10-03T17:42:09.169Z,12.40
2022-10-03T17:44:38.440Z,12.30
2022-10-03T17:47:22.937Z,12.10
2022-10-03T17:49:58.107Z,12.00
2022-10-03T17:52:26.126Z,11.90
2022-10-03T17:55:04.855Z,11.80
2022-10-03T17:57:38.579Z,11.70
2022-10-03T18:00:23.310Z,11.60
2022-10-03T18:03:24.007Z,11.60
2022-10-03T18:05:53.426Z,11.50
2022-10-03T18:08:27.437Z,11.40
2022-10-03T18:10:56.531Z,11.30
2022-10-03T18:13:42.342Z,11.20
2022-10-03T18:16:35.099Z,11.20
2022-10-03T18:20:15.714Z,11.20
2022-10-03T18:22:48.993Z,11.10
2022-10-03T18:26:18.244Z,11.20
2022-10-03T18:29:14.551Z,11.20
2022-10-03T18:31:46.056Z,11.20
2022-10-03T18:34:15.834Z,11.20
2022-10-03T18:36:47.396Z,11.20
2022-10-03T18:39:31.049Z,11.10
2022-10-03T18:42:00.185Z,11.00
2022-10-03T18:44:30.348Z,10.90
2022-10-03T18:47:30.114Z,10.90
2022-10-03T18:50:10.497Z,10.80
2022-10-03T18:53:16.626Z,10.70
2022-10-03T18:55:48.419Z,10.70
2022-10-03T18:58:36.020Z,10.70
2022-10-03T19:01:17.128Z,10.70
2022-10-03T19:03:59.229Z,10.50
2022-10-03T19:06:34.346Z,10.50
2022-10-03T19:09:28.268Z,10.50
2022-10-03T19:12:14.576Z,10.40
2022-10-03T19:15:15.788Z,10.30
2022-10-03T19:18:01.764Z,10.30
2022-10-03T19:20:37.245Z,10.30
2022-10-03T19:23:13.064Z,10.30
2022-10-03T19:25:42.842Z,10.20
2022-10-03T19:28:39.022Z,10.20
2022-10-03T19:31:17.565Z,10.20
2022-10-03T19:33:50.461Z,10.20
2022-10-03T19:36:26.262Z,10.20
2022-10-03T19:38:54.798Z,10.20
2022-10-03T19:41:52.345Z,10.10
2022-10-03T19:44:25.440Z,10.10
2022-10-03T19:46:52.100Z,10.10
2022-10-03T19:49:39.610Z,10.00
2022-10-03T19:52:16.790Z,10.00
2022-10-03T19:54:48.462Z,10.00
2022-10-03T19:57:40.589Z,10.00
2022-10-03T20:00:34.875Z,9.90
2022-10-03T20:03:23.119Z,9.90
2022-10-03T20:05:53.746Z,9.80
2022-10-03T20:08:38.668Z,9.70
2022-10-03T20:11:24.228Z,9.70
2022-10-03T20:13:51.310Z,9.70
2022-10-03T20:16:21.743Z,9.70
2022-10-03T20:18:55.989Z,9.60
2022-10-03T20:21:28.667Z,9.50
2022-10-03T20:23:58.009Z,9.60
2022-10-03T20:26:32.069Z,9.50
2022-10-03T20:29:25.033Z,9.50
2022-10-03T20:31:58.025Z,9.50
2022-10-03T20:34:25.112Z,9.50
2022-10-03T20:37:30.498Z,9.40
2022-10-03T20:40:25.523Z,9.40
2022-10-03T20:42:58.734Z,9.40
2022-10-03T20:45:29.688Z,9.40
2022-10-03T20:48:11.529Z,9.40
2022-10-03T20:50:47.349Z,9.40
2022-10-03T20:53:26.495Z,9.40
2022-10-03T20:56:10.452Z,9.40
2022-10-03T20:58:50.235Z,9.50
2022-10-03T21:01:22.545Z,9.50
2022-10-03T21:04:26.576Z,9.50
2022-10-03T21:06:58.156Z,9.50
2022-10-03T21:09:42.887Z,9.30
2022-10-03T21:12:47.781Z,9.30
2022-10-03T21:15:29.848Z,9.20
2022-10-03T21:17:57.861Z,9.20
2022-10-03T21:20:32.657Z,9.10
2022-10-03T21:23:04.109Z,9.10
2022-10-03T21:25:35.173Z,9.00
2022-10-03T21:28:03.703Z,9.00
2022-10-03T21:30:53.733Z,8.90
2022-10-03T21:33:49.570Z,8.90
2022-10-03T21:36:34.220Z,8.90
2022-10-03T21:39:22.969Z,8.90
2022-10-03T21:42:16.586Z,8.80
2022-10-03T21:45:02.248Z,8.90
2022-10-03T21:47:33.851Z,8.80
2022-10-03T21:50:03.773Z,8.70
2022-10-03T21:52:51.715Z,8.60
2022-10-03T21:55:52.685Z,8.60
2022-10-03T21:58:26.034Z,8.60
2022-10-03T22:01:09.957Z,8.60
2022-10-03T22:03:55.201Z,8.60
2022-10-03T22:06:27.492Z,8.50
2022-10-03T22:09:00.368Z,8.60
2022-10-03T22:12:02.488Z,8.60
2022-10-03T22:14:51.157Z,8.60
2022-10-03T22:17:48.196Z,8.60
2022-10-03T22:20:23.286Z,8.60
2022-10-03T22:23:09.113Z,8.60
2022-10-03T22:25:45.139Z,8.50
2022-10-03T22:28:26.825Z,8.50
2022-10-03T22:31:11.596Z,8.40
2022-10-03T22:33:48.351Z,8.30
2022-10-03T22:36:16.989Z,8.30
2022-10-03T22:38:44.960Z,8.30
2022-10-03T22:41:16.334Z,8.40
2022-10-03T22:43:44.490Z,8.30
2022-10-03T22:46:18.189Z,8.20
2022-10-03T22:48:53.293Z,8.20
2022-10-03T22:51:21.822Z,8.20
2022-10-03T22:53:53.508Z,8.20
2022-10-03T22:56:45.465Z,8.20
2022-10-03T22:59:27.205Z,8.30
2022-10-03T23:01:57.396Z,8.40
2022-10-03T23:04:40.475Z,8.40
2022-10-03T23:07:31.836Z,8.30
2022-10-03T23:10:40.147Z,8.20
2022-10-03T23:13:34.863Z,8.10
2022-10-03T23:16:35.659Z,8.00
2022-10-03T23:19:21.099Z,7.90
2022-10-03T23:21:52.886Z,7.90
2022-10-03T23:24:56.842Z,7.80
2022-10-03T23:28:05.648Z,7.80
2022-10-03T23:30:35.195Z,7.80
2022-10-03T23:33:02.020Z,7.90
2022-10-03T23:35:31.829Z,7.90
2022-10-03T23:38:00.131Z,8.00
2022-10-03T23:40:45.297Z,8.00
2022-10-03T23:43:35.483Z,8.00
2022-10-03T23:46:05.281Z,8.10
2022-10-03T23:48:49.477Z,8.00
2022-10-03T23:51:21.123Z,7.80
2022-10-03T23:53:53.272Z,7.70
2022-10-03T23:56:26.404Z,7.70
2022-10-03T23:59:17.965Z,7.70
